sensor_id;sensor_type;location;lat;lon;timestamp;P1;durP1;ratioP1;P2;durP2;ratioP2
6306;SDS011;3186;54.062;9.962;2023-11-19T00:00:21;13.97;;;8.20;;
6306;SDS011;3186;54.062;9.962;2023-11-19T00:02:48;9.40;;;7.90;;
6306;SDS011;3186;54.062;9.962;2023-11-19T00:05:14;9.17;;;7.77;;
6306;SDS011;3186;54.062;9.962;2023-11-19T00:07:40;13.87;;;8.00;;
6306;SDS011;3186;54.062;9.962;2023-11-19T00:10:09;11.10;;;7.87;;
6306;SDS011;3186;54.062;9.962;2023-11-19T00:12:42;11.20;;;7.90;;
6306;SDS011;3186;54.062;9.962;2023-11-19T00:15:12;15.37;;;8.60;;
6306;SDS011;3186;54.062;9.962;2023-11-19T00:17:42;15.20;;;9.20;;
6306;SDS011;3186;54.062;9.962;2023-11-19T00:20:12;11.80;;;8.77;;
6306;SDS011;3186;54.062;9.962;2023-11-19T00:22:39;11.13;;;8.77;;
6306;SDS011;3186;54.062;9.962;2023-11-19T00:25:06;9.60;;;7.47;;
6306;SDS011;3186;54.062;9.962;2023-11-19T00:27:33;9.93;;;8.27;;
6306;SDS011;3186;54.062;9.962;2023-11-19T00:29:58;10.40;;;8.13;;
6306;SDS011;3186;54.062;9.962;2023-11-19T00:32:24;11.37;;;8.10;;
6306;SDS011;3186;54.062;9.962;2023-11-19T00:34:49;11.43;;;8.27;;
6306;SDS011;3186;54.062;9.962;2023-11-19T00:37:16;10.87;;;9.00;;
6306;SDS011;3186;54.062;9.962;2023-11-19T00:39:42;11.57;;;8.13;;
6306;SDS011;3186;54.062;9.962;2023-11-19T00:42:09;8.83;;;7.93;;
6306;SDS011;3186;54.062;9.962;2023-11-19T00:44:35;9.17;;;7.97;;
6306;SDS011;3186;54.062;9.962;2023-11-19T00:47:01;9.80;;;7.77;;
6306;SDS011;3186;54.062;9.962;2023-11-19T00:49:28;10.57;;;7.77;;
6306;SDS011;3186;54.062;9.962;2023-11-19T00:51:53;11.47;;;8.40;;
6306;SDS011;3186;54.062;9.962;2023-11-19T00:54:19;7.40;;;6.60;;
6306;SDS011;3186;54.062;9.962;2023-11-19T00:56:45;8.17;;;7.00;;
6306;SDS011;3186;54.062;9.962;2023-11-19T00:59:11;8.77;;;6.87;;
6306;SDS011;3186;54.062;9.962;2023-11-19T01:01:37;8.13;;;6.67;;
6306;SDS011;3186;54.062;9.962;2023-11-19T01:04:02;8.57;;;6.70;;
6306;SDS011;3186;54.062;9.962;2023-11-19T01:06:30;8.70;;;6.40;;
6306;SDS011;3186;54.062;9.962;2023-11-19T01:08:56;11.20;;;6.60;;
6306;SDS011;3186;54.062;9.962;2023-11-19T01:11:22;8.60;;;6.27;;
6306;SDS011;3186;54.062;9.962;2023-11-19T01:13:49;6.77;;;6.10;;
6306;SDS011;3186;54.062;9.962;2023-11-19T01:16:16;6.73;;;6.03;;
6306;SDS011;3186;54.062;9.962;2023-11-19T01:18:42;8.40;;;5.53;;
6306;SDS011;3186;54.062;9.962;2023-11-19T01:21:08;7.07;;;5.60;;
6306;SDS011;3186;54.062;9.962;2023-11-19T01:23:34;6.63;;;5.27;;
6306;SDS011;3186;54.062;9.962;2023-11-19T01:26:00;6.67;;;5.33;;
6306;SDS011;3186;54.062;9.962;2023-11-19T01:28:25;5.43;;;4.93;;
6306;SDS011;3186;54.062;9.962;2023-11-19T01:30:51;6.70;;;5.47;;
6306;SDS011;3186;54.062;9.962;2023-11-19T01:33:17;6.53;;;4.63;;
6306;SDS011;3186;54.062;9.962;2023-11-19T01:35:43;5.33;;;4.70;;
6306;SDS011;3186;54.062;9.962;2023-11-19T01:38:08;5.67;;;4.53;;
6306;SDS011;3186;54.062;9.962;2023-11-19T01:40:34;4.97;;;4.47;;
6306;SDS011;3186;54.062;9.962;2023-11-19T01:43:01;6.77;;;4.97;;
6306;SDS011;3186;54.062;9.962;2023-11-19T01:45:28;5.53;;;4.27;;
6306;SDS011;3186;54.062;9.962;2023-11-19T01:47:56;4.93;;;4.07;;
6306;SDS011;3186;54.062;9.962;2023-11-19T01:50:23;7.77;;;3.73;;
6306;SDS011;3186;54.062;9.962;2023-11-19T01:52:50;5.13;;;3.93;;
6306;SDS011;3186;54.062;9.962;2023-11-19T01:55:22;4.97;;;3.67;;
6306;SDS011;3186;54.062;9.962;2023-11-19T01:57:50;6.83;;;3.57;;
6306;SDS011;3186;54.062;9.962;2023-11-19T02:00:19;4.10;;;3.60;;
6306;SDS011;3186;54.062;9.962;2023-11-19T02:02:45;5.23;;;3.67;;
6306;SDS011;3186;54.062;9.962;2023-11-19T02:05:13;4.67;;;4.00;;
6306;SDS011;3186;54.062;9.962;2023-11-19T02:07:39;3.47;;;3.17;;
6306;SDS011;3186;54.062;9.962;2023-11-19T02:10:06;3.33;;;2.97;;
6306;SDS011;3186;54.062;9.962;2023-11-19T02:12:37;3.20;;;2.90;;
6306;SDS011;3186;54.062;9.962;2023-11-19T02:15:08;3.43;;;2.73;;
6306;SDS011;3186;54.062;9.962;2023-11-19T02:17:34;2.80;;;2.53;;
6306;SDS011;3186;54.062;9.962;2023-11-19T02:20:02;2.80;;;2.50;;
6306;SDS011;3186;54.062;9.962;2023-11-19T02:22:31;3.07;;;2.80;;
6306;SDS011;3186;54.062;9.962;2023-11-19T02:25:03;3.57;;;2.73;;
6306;SDS011;3186;54.062;9.962;2023-11-19T02:27:41;3.47;;;2.37;;
6306;SDS011;3186;54.062;9.962;2023-11-19T02:30:13;2.57;;;2.00;;
6306;SDS011;3186;54.062;9.962;2023-11-19T02:32:40;2.30;;;2.10;;
6306;SDS011;3186;54.062;9.962;2023-11-19T02:35:07;1.87;;;1.50;;
6306;SDS011;3186;54.062;9.962;2023-11-19T02:37:33;2.37;;;2.03;;
6306;SDS011;3186;54.062;9.962;2023-11-19T02:39:59;1.97;;;1.77;;
6306;SDS011;3186;54.062;9.962;2023-11-19T02:42:31;2.80;;;1.80;;
6306;SDS011;3186;54.062;9.962;2023-11-19T02:44:57;1.80;;;1.70;;
6306;SDS011;3186;54.062;9.962;2023-11-19T02:47:22;1.53;;;1.43;;
6306;SDS011;3186;54.062;9.962;2023-11-19T02:49:49;2.63;;;1.70;;
6306;SDS011;3186;54.062;9.962;2023-11-19T02:52:15;1.83;;;1.70;;
6306;SDS011;3186;54.062;9.962;2023-11-19T02:54:42;1.80;;;1.50;;
6306;SDS011;3186;54.062;9.962;2023-11-19T02:57:08;2.23;;;2.00;;
6306;SDS011;3186;54.062;9.962;2023-11-19T02:59:39;1.57;;;1.40;;
6306;SDS011;3186;54.062;9.962;2023-11-19T03:02:07;1.63;;;1.53;;
6306;SDS011;3186;54.062;9.962;2023-11-19T03:04:39;1.57;;;1.47;;
6306;SDS011;3186;54.062;9.962;2023-11-19T03:07:06;1.40;;;1.30;;
6306;SDS011;3186;54.062;9.962;2023-11-19T03:09:32;1.37;;;1.27;;
6306;SDS011;3186;54.062;9.962;2023-11-19T03:12:00;1.40;;;1.30;;
6306;SDS011;3186;54.062;9.962;2023-11-19T03:14:26;3.00;;;1.30;;
6306;SDS011;3186;54.062;9.962;2023-11-19T03:16:51;1.80;;;1.47;;
6306;SDS011;3186;54.062;9.962;2023-11-19T03:19:17;2.33;;;1.33;;
6306;SDS011;3186;54.062;9.962;2023-11-19T03:21:43;1.87;;;1.33;;
6306;SDS011;3186;54.062;9.962;2023-11-19T03:24:10;1.60;;;1.07;;
6306;SDS011;3186;54.062;9.962;2023-11-19T03:26:38;1.73;;;1.20;;
6306;SDS011;3186;54.062;9.962;2023-11-19T03:29:05;0.90;;;0.90;;
6306;SDS011;3186;54.062;9.962;2023-11-19T03:31:30;1.30;;;1.20;;
6306;SDS011;3186;54.062;9.962;2023-11-19T03:33:56;1.70;;;1.00;;
6306;SDS011;3186;54.062;9.962;2023-11-19T03:36:22;0.93;;;0.90;;
6306;SDS011;3186;54.062;9.962;2023-11-19T03:38:49;1.00;;;1.00;;
6306;SDS011;3186;54.062;9.962;2023-11-19T03:41:14;0.93;;;0.93;;
6306;SDS011;3186;54.062;9.962;2023-11-19T03:43:42;0.90;;;0.90;;
6306;SDS011;3186;54.062;9.962;2023-11-19T03:46:20;0.83;;;0.83;;
6306;SDS011;3186;54.062;9.962;2023-11-19T03:48:49;0.97;;;0.97;;
6306;SDS011;3186;54.062;9.962;2023-11-19T03:51:15;1.00;;;0.90;;
6306;SDS011;3186;54.062;9.962;2023-11-19T03:53:42;0.70;;;0.70;;
6306;SDS011;3186;54.062;9.962;2023-11-19T03:56:08;0.80;;;0.80;;
6306;SDS011;3186;54.062;9.962;2023-11-19T03:58:37;1.37;;;1.00;;
6306;SDS011;3186;54.062;9.962;2023-11-19T04:01:10;0.80;;;0.80;;
6306;SDS011;3186;54.062;9.962;2023-11-19T04:03:39;0.83;;;0.70;;
6306;SDS011;3186;54.062;9.962;2023-11-19T04:06:05;0.70;;;0.70;;
6306;SDS011;3186;54.062;9.962;2023-11-19T04:08:31;0.80;;;0.80;;
6306;SDS011;3186;54.062;9.962;2023-11-19T04:10:56;0.77;;;0.77;;
6306;SDS011;3186;54.062;9.962;2023-11-19T04:13:22;0.73;;;0.73;;
6306;SDS011;3186;54.062;9.962;2023-11-19T04:15:49;1.00;;;0.90;;
6306;SDS011;3186;54.062;9.962;2023-11-19T04:18:15;0.70;;;0.70;;
6306;SDS011;3186;54.062;9.962;2023-11-19T04:20:41;1.57;;;0.73;;
6306;SDS011;3186;54.062;9.962;2023-11-19T04:23:08;0.70;;;0.70;;
6306;SDS011;3186;54.062;9.962;2023-11-19T04:25:34;0.70;;;0.70;;
6306;SDS011;3186;54.062;9.962;2023-11-19T04:28:00;1.80;;;0.77;;
6306;SDS011;3186;54.062;9.962;2023-11-19T04:30:27;0.80;;;0.80;;
6306;SDS011;3186;54.062;9.962;2023-11-19T04:32:53;0.80;;;0.80;;
6306;SDS011;3186;54.062;9.962;2023-11-19T04:35:19;0.60;;;0.60;;
6306;SDS011;3186;54.062;9.962;2023-11-19T04:37:44;0.93;;;0.83;;
6306;SDS011;3186;54.062;9.962;2023-11-19T04:40:10;2.40;;;0.90;;
6306;SDS011;3186;54.062;9.962;2023-11-19T04:42:37;0.77;;;0.77;;
6306;SDS011;3186;54.062;9.962;2023-11-19T04:45:05;1.30;;;0.90;;
6306;SDS011;3186;54.062;9.962;2023-11-19T04:47:32;1.00;;;1.00;;
6306;SDS011;3186;54.062;9.962;2023-11-19T04:49:59;0.77;;;0.70;;
6306;SDS011;3186;54.062;9.962;2023-11-19T04:52:25;1.30;;;1.20;;
6306;SDS011;3186;54.062;9.962;2023-11-19T04:54:51;1.30;;;1.20;;
6306;SDS011;3186;54.062;9.962;2023-11-19T04:57:17;1.53;;;1.43;;
6306;SDS011;3186;54.062;9.962;2023-11-19T04:59:43;1.70;;;1.40;;
6306;SDS011;3186;54.062;9.962;2023-11-19T05:02:09;1.27;;;1.23;;
6306;SDS011;3186;54.062;9.962;2023-11-19T05:04:34;1.50;;;1.40;;
6306;SDS011;3186;54.062;9.962;2023-11-19T05:07:00;1.33;;;1.23;;
6306;SDS011;3186;54.062;9.962;2023-11-19T05:09:26;1.57;;;1.47;;
6306;SDS011;3186;54.062;9.962;2023-11-19T05:11:52;2.10;;;1.90;;
6306;SDS011;3186;54.062;9.962;2023-11-19T05:14:17;2.40;;;1.60;;
6306;SDS011;3186;54.062;9.962;2023-11-19T05:16:47;1.90;;;1.70;;
6306;SDS011;3186;54.062;9.962;2023-11-19T05:19:13;3.67;;;3.27;;
6306;SDS011;3186;54.062;9.962;2023-11-19T05:21:41;2.50;;;2.30;;
6306;SDS011;3186;54.062;9.962;2023-11-19T05:24:10;2.30;;;2.10;;
6306;SDS011;3186;54.062;9.962;2023-11-19T05:26:39;5.30;;;4.10;;
6306;SDS011;3186;54.062;9.962;2023-11-19T05:29:05;6.43;;;5.20;;
6306;SDS011;3186;54.062;9.962;2023-11-19T05:31:31;9.23;;;6.33;;
6306;SDS011;3186;54.062;9.962;2023-11-19T05:33:56;9.40;;;6.33;;
6306;SDS011;3186;54.062;9.962;2023-11-19T05:36:22;11.40;;;8.17;;
6306;SDS011;3186;54.062;9.962;2023-11-19T05:38:47;8.77;;;6.33;;
6306;SDS011;3186;54.062;9.962;2023-11-19T05:41:13;10.23;;;9.07;;
6306;SDS011;3186;54.062;9.962;2023-11-19T05:43:39;15.00;;;8.17;;
6306;SDS011;3186;54.062;9.962;2023-11-19T05:46:05;9.13;;;6.90;;
6306;SDS011;3186;54.062;9.962;2023-11-19T05:48:31;10.07;;;8.40;;
6306;SDS011;3186;54.062;9.962;2023-11-19T05:50:57;14.33;;;10.80;;
6306;SDS011;3186;54.062;9.962;2023-11-19T05:53:23;16.40;;;10.67;;
6306;SDS011;3186;54.062;9.962;2023-11-19T05:55:49;12.10;;;9.63;;
6306;SDS011;3186;54.062;9.962;2023-11-19T05:58:23;10.90;;;9.17;;
6306;SDS011;3186;54.062;9.962;2023-11-19T06:00:54;10.43;;;8.67;;
6306;SDS011;3186;54.062;9.962;2023-11-19T06:03:20;15.77;;;10.63;;
6306;SDS011;3186;54.062;9.962;2023-11-19T06:05:49;16.37;;;12.33;;
6306;SDS011;3186;54.062;9.962;2023-11-19T06:08:15;21.00;;;12.17;;
6306;SDS011;3186;54.062;9.962;2023-11-19T06:10:42;16.57;;;12.27;;
6306;SDS011;3186;54.062;9.962;2023-11-19T06:13:08;17.50;;;12.93;;
6306;SDS011;3186;54.062;9.962;2023-11-19T06:15:36;13.27;;;9.43;;
6306;SDS011;3186;54.062;9.962;2023-11-19T06:18:02;20.47;;;13.67;;
6306;SDS011;3186;54.062;9.962;2023-11-19T06:20:32;21.70;;;13.40;;
6306;SDS011;3186;54.062;9.962;2023-11-19T06:22:58;27.07;;;15.33;;
6306;SDS011;3186;54.062;9.962;2023-11-19T06:25:24;21.57;;;14.67;;
6306;SDS011;3186;54.062;9.962;2023-11-19T06:27:50;20.60;;;15.73;;
6306;SDS011;3186;54.062;9.962;2023-11-19T06:30:16;30.10;;;18.13;;
6306;SDS011;3186;54.062;9.962;2023-11-19T06:32:42;34.33;;;19.63;;
6306;SDS011;3186;54.062;9.962;2023-11-19T06:35:07;34.13;;;18.47;;
6306;SDS011;3186;54.062;9.962;2023-11-19T06:37:34;28.80;;;17.40;;
6306;SDS011;3186;54.062;9.962;2023-11-19T06:40:09;28.67;;;18.03;;
6306;SDS011;3186;54.062;9.962;2023-11-19T06:42:35;31.00;;;18.13;;
6306;SDS011;3186;54.062;9.962;2023-11-19T06:45:01;38.00;;;21.07;;
6306;SDS011;3186;54.062;9.962;2023-11-19T06:47:28;41.40;;;20.67;;
6306;SDS011;3186;54.062;9.962;2023-11-19T06:49:54;33.33;;;19.50;;
6306;SDS011;3186;54.062;9.962;2023-11-19T06:52:20;36.13;;;20.50;;
6306;SDS011;3186;54.062;9.962;2023-11-19T06:54:45;34.17;;;19.17;;
6306;SDS011;3186;54.062;9.962;2023-11-19T06:57:12;41.17;;;19.80;;
6306;SDS011;3186;54.062;9.962;2023-11-19T06:59:38;38.47;;;19.73;;
6306;SDS011;3186;54.062;9.962;2023-11-19T07:02:04;38.70;;;18.17;;
6306;SDS011;3186;54.062;9.962;2023-11-19T07:04:32;35.23;;;19.20;;
6306;SDS011;3186;54.062;9.962;2023-11-19T07:07:00;43.57;;;17.10;;
6306;SDS011;3186;54.062;9.962;2023-11-19T07:09:26;43.90;;;17.27;;
6306;SDS011;3186;54.062;9.962;2023-11-19T07:11:52;44.83;;;17.77;;
6306;SDS011;3186;54.062;9.962;2023-11-19T07:14:18;50.97;;;18.10;;
6306;SDS011;3186;54.062;9.962;2023-11-19T07:16:45;53.57;;;17.50;;
6306;SDS011;3186;54.062;9.962;2023-11-19T07:19:11;35.77;;;16.23;;
6306;SDS011;3186;54.062;9.962;2023-11-19T07:21:37;44.53;;;15.33;;
6306;SDS011;3186;54.062;9.962;2023-11-19T07:24:09;50.77;;;13.70;;
6306;SDS011;3186;54.062;9.962;2023-11-19T07:26:35;45.43;;;13.83;;
6306;SDS011;3186;54.062;9.962;2023-11-19T07:29:02;33.50;;;12.57;;
6306;SDS011;3186;54.062;9.962;2023-11-19T07:31:28;41.77;;;11.20;;
6306;SDS011;3186;54.062;9.962;2023-11-19T07:33:53;32.90;;;9.23;;
6306;SDS011;3186;54.062;9.962;2023-11-19T07:36:19;50.20;;;9.63;;
6306;SDS011;3186;54.062;9.962;2023-11-19T07:38:45;35.10;;;9.70;;
6306;SDS011;3186;54.062;9.962;2023-11-19T07:41:12;37.13;;;9.60;;
6306;SDS011;3186;54.062;9.962;2023-11-19T07:43:43;39.73;;;9.10;;
6306;SDS011;3186;54.062;9.962;2023-11-19T07:46:12;45.87;;;10.43;;
6306;SDS011;3186;54.062;9.962;2023-11-19T07:48:39;50.93;;;10.27;;
6306;SDS011;3186;54.062;9.962;2023-11-19T07:51:06;62.43;;;9.77;;
6306;SDS011;3186;54.062;9.962;2023-11-19T07:53:31;39.27;;;9.60;;
6306;SDS011;3186;54.062;9.962;2023-11-19T07:56:00;45.83;;;9.73;;
6306;SDS011;3186;54.062;9.962;2023-11-19T07:58:26;41.73;;;10.47;;
6306;SDS011;3186;54.062;9.962;2023-11-19T08:00:51;52.50;;;11.00;;
6306;SDS011;3186;54.062;9.962;2023-11-19T08:03:17;38.83;;;9.83;;
6306;SDS011;3186;54.062;9.962;2023-11-19T08:05:44;54.50;;;11.03;;
6306;SDS011;3186;54.062;9.962;2023-11-19T08:08:11;54.23;;;11.50;;
6306;SDS011;3186;54.062;9.962;2023-11-19T08:10:37;56.23;;;12.10;;
6306;SDS011;3186;54.062;9.962;2023-11-19T08:13:02;62.10;;;11.47;;
6306;SDS011;3186;54.062;9.962;2023-11-19T08:15:28;48.87;;;11.33;;
6306;SDS011;3186;54.062;9.962;2023-11-19T08:17:54;65.17;;;12.60;;
6306;SDS011;3186;54.062;9.962;2023-11-19T08:20:20;66.40;;;12.50;;
6306;SDS011;3186;54.062;9.962;2023-11-19T08:22:45;62.20;;;12.90;;
6306;SDS011;3186;54.062;9.962;2023-11-19T08:25:11;64.07;;;13.40;;
6306;SDS011;3186;54.062;9.962;2023-11-19T08:27:36;63.03;;;13.27;;
6306;SDS011;3186;54.062;9.962;2023-11-19T08:30:02;67.30;;;12.90;;
6306;SDS011;3186;54.062;9.962;2023-11-19T08:32:28;77.47;;;13.73;;
6306;SDS011;3186;54.062;9.962;2023-11-19T08:34:54;60.90;;;13.80;;
6306;SDS011;3186;54.062;9.962;2023-11-19T08:37:21;77.00;;;13.83;;
6306;SDS011;3186;54.062;9.962;2023-11-19T08:39:47;69.97;;;12.70;;
6306;SDS011;3186;54.062;9.962;2023-11-19T08:42:13;61.20;;;13.03;;
6306;SDS011;3186;54.062;9.962;2023-11-19T08:44:39;63.27;;;12.33;;
6306;SDS011;3186;54.062;9.962;2023-11-19T08:47:08;69.60;;;13.90;;
6306;SDS011;3186;54.062;9.962;2023-11-19T08:49:34;67.93;;;14.27;;
6306;SDS011;3186;54.062;9.962;2023-11-19T08:52:00;63.90;;;13.47;;
6306;SDS011;3186;54.062;9.962;2023-11-19T08:54:25;65.07;;;12.90;;
6306;SDS011;3186;54.062;9.962;2023-11-19T08:56:51;63.03;;;12.37;;
6306;SDS011;3186;54.062;9.962;2023-11-19T08:59:17;46.20;;;10.53;;
6306;SDS011;3186;54.062;9.962;2023-11-19T09:01:44;73.60;;;11.10;;
6306;SDS011;3186;54.062;9.962;2023-11-19T09:04:09;58.73;;;10.70;;
6306;SDS011;3186;54.062;9.962;2023-11-19T09:06:35;49.90;;;10.77;;
6306;SDS011;3186;54.062;9.962;2023-11-19T09:09:01;46.77;;;10.37;;
6306;SDS011;3186;54.062;9.962;2023-11-19T09:11:31;60.83;;;12.17;;
6306;SDS011;3186;54.062;9.962;2023-11-19T09:13:57;60.23;;;11.57;;
6306;SDS011;3186;54.062;9.962;2023-11-19T09:16:22;56.67;;;11.87;;
6306;SDS011;3186;54.062;9.962;2023-11-19T09:18:48;59.73;;;11.53;;
6306;SDS011;3186;54.062;9.962;2023-11-19T09:21:14;52.87;;;11.23;;
6306;SDS011;3186;54.062;9.962;2023-11-19T09:23:39;47.27;;;11.60;;
6306;SDS011;3186;54.062;9.962;2023-11-19T09:26:05;57.07;;;10.43;;
6306;SDS011;3186;54.062;9.962;2023-11-19T09:28:33;53.00;;;11.07;;
6306;SDS011;3186;54.062;9.962;2023-11-19T09:30:58;51.00;;;10.63;;
6306;SDS011;3186;54.062;9.962;2023-11-19T09:33:24;64.63;;;11.67;;
6306;SDS011;3186;54.062;9.962;2023-11-19T09:35:51;40.13;;;10.60;;
6306;SDS011;3186;54.062;9.962;2023-11-19T09:38:17;58.17;;;11.80;;
6306;SDS011;3186;54.062;9.962;2023-11-19T09:40:42;60.63;;;11.57;;
6306;SDS011;3186;54.062;9.962;2023-11-19T09:43:08;57.00;;;11.73;;
6306;SDS011;3186;54.062;9.962;2023-11-19T09:48:32;52.73;;;10.80;;
6306;SDS011;3186;54.062;9.962;2023-11-19T09:51:00;56.07;;;10.80;;
6306;SDS011;3186;54.062;9.962;2023-11-19T09:53:26;51.40;;;10.43;;
6306;SDS011;3186;54.062;9.962;2023-11-19T09:55:52;49.10;;;12.13;;
6306;SDS011;3186;54.062;9.962;2023-11-19T09:58:20;53.57;;;11.73;;
6306;SDS011;3186;54.062;9.962;2023-11-19T10:00:45;43.40;;;10.83;;
6306;SDS011;3186;54.062;9.962;2023-11-19T10:03:13;38.70;;;10.63;;
6306;SDS011;3186;54.062;9.962;2023-11-19T10:05:39;57.47;;;11.80;;
6306;SDS011;3186;54.062;9.962;2023-11-19T10:08:06;51.93;;;11.37;;
6306;SDS011;3186;54.062;9.962;2023-11-19T10:10:32;50.13;;;11.63;;
6306;SDS011;3186;54.062;9.962;2023-11-19T10:13:00;57.90;;;11.70;;
6306;SDS011;3186;54.062;9.962;2023-11-19T10:15:25;53.10;;;10.87;;
6306;SDS011;3186;54.062;9.962;2023-11-19T10:17:58;57.70;;;11.70;;
6306;SDS011;3186;54.062;9.962;2023-11-19T10:20:23;67.03;;;12.60;;
6306;SDS011;3186;54.062;9.962;2023-11-19T10:22:52;74.83;;;12.80;;
6306;SDS011;3186;54.062;9.962;2023-11-19T10:27:53;52.07;;;11.73;;
6306;SDS011;3186;54.062;9.962;2023-11-19T10:30:23;76.57;;;12.60;;
6306;SDS011;3186;54.062;9.962;2023-11-19T10:35:31;61.13;;;13.17;;
6306;SDS011;3186;54.062;9.962;2023-11-19T10:38:21;63.70;;;13.03;;
6306;SDS011;3186;54.062;9.962;2023-11-19T10:40:48;66.20;;;12.90;;
6306;SDS011;3186;54.062;9.962;2023-11-19T10:43:15;62.37;;;12.03;;
6306;SDS011;3186;54.062;9.962;2023-11-19T10:45:44;63.80;;;11.77;;
6306;SDS011;3186;54.062;9.962;2023-11-19T10:48:10;65.33;;;12.50;;
6306;SDS011;3186;54.062;9.962;2023-11-19T10:50:38;51.30;;;11.63;;
6306;SDS011;3186;54.062;9.962;2023-11-19T10:53:09;43.73;;;10.40;;
6306;SDS011;3186;54.062;9.962;2023-11-19T10:55:38;46.03;;;10.80;;
6306;SDS011;3186;54.062;9.962;2023-11-19T10:58:04;54.67;;;10.70;;
6306;SDS011;3186;54.062;9.962;2023-11-19T11:00:38;50.10;;;11.37;;
6306;SDS011;3186;54.062;9.962;2023-11-19T11:03:10;52.73;;;10.30;;
6306;SDS011;3186;54.062;9.962;2023-11-19T11:05:48;46.10;;;9.47;;
6306;SDS011;3186;54.062;9.962;2023-11-19T11:08:15;49.47;;;10.53;;
6306;SDS011;3186;54.062;9.962;2023-11-19T11:10:43;52.50;;;10.63;;
6306;SDS011;3186;54.062;9.962;2023-11-19T11:13:19;51.37;;;10.90;;
6306;SDS011;3186;54.062;9.962;2023-11-19T11:15:48;54.67;;;10.47;;
6306;SDS011;3186;54.062;9.962;2023-11-19T11:18:15;57.00;;;11.27;;
6306;SDS011;3186;54.062;9.962;2023-11-19T11:20:44;59.10;;;11.17;;
6306;SDS011;3186;54.062;9.962;2023-11-19T11:31:44;41.83;;;9.63;;
6306;SDS011;3186;54.062;9.962;2023-11-19T11:39:57;46.43;;;10.00;;
6306;SDS011;3186;54.062;9.962;2023-11-19T11:45:01;39.33;;;8.10;;
6306;SDS011;3186;54.062;9.962;2023-11-19T11:50:09;40.20;;;8.70;;
6306;SDS011;3186;54.062;9.962;2023-11-19T11:55:27;43.17;;;9.93;;
6306;SDS011;3186;54.062;9.962;2023-11-19T11:57:57;53.17;;;9.73;;
6306;SDS011;3186;54.062;9.962;2023-11-19T12:02:56;53.03;;;10.50;;
6306;SDS011;3186;54.062;9.962;2023-11-19T12:05:22;41.30;;;8.43;;
6306;SDS011;3186;54.062;9.962;2023-11-19T12:07:55;46.03;;;10.47;;
6306;SDS011;3186;54.062;9.962;2023-11-19T12:10:23;49.63;;;10.40;;
6306;SDS011;3186;54.062;9.962;2023-11-19T12:12:52;47.77;;;10.67;;
6306;SDS011;3186;54.062;9.962;2023-11-19T12:15:19;35.40;;;8.93;;
6306;SDS011;3186;54.062;9.962;2023-11-19T12:17:50;35.17;;;9.73;;
6306;SDS011;3186;54.062;9.962;2023-11-19T12:20:19;44.53;;;9.10;;
6306;SDS011;3186;54.062;9.962;2023-11-19T12:22:47;37.97;;;9.27;;
6306;SDS011;3186;54.062;9.962;2023-11-19T12:25:14;42.40;;;9.20;;
6306;SDS011;3186;54.062;9.962;2023-11-19T12:27:45;43.97;;;8.87;;
6306;SDS011;3186;54.062;9.962;2023-11-19T12:30:16;42.97;;;9.33;;
6306;SDS011;3186;54.062;9.962;2023-11-19T12:32:44;37.50;;;9.27;;
6306;SDS011;3186;54.062;9.962;2023-11-19T12:35:11;56.20;;;11.13;;
6306;SDS011;3186;54.062;9.962;2023-11-19T12:37:47;43.37;;;9.03;;
6306;SDS011;3186;54.062;9.962;2023-11-19T12:40:17;47.17;;;10.13;;
6306;SDS011;3186;54.062;9.962;2023-11-19T12:42:50;47.73;;;9.47;;
6306;SDS011;3186;54.062;9.962;2023-11-19T12:45:19;43.70;;;9.33;;
6306;SDS011;3186;54.062;9.962;2023-11-19T12:47:47;48.97;;;9.50;;
6306;SDS011;3186;54.062;9.962;2023-11-19T12:50:14;44.03;;;9.37;;
6306;SDS011;3186;54.062;9.962;2023-11-19T12:52:42;28.03;;;7.00;;
6306;SDS011;3186;54.062;9.962;2023-11-19T12:55:24;31.77;;;6.53;;
6306;SDS011;3186;54.062;9.962;2023-11-19T12:57:54;36.93;;;7.90;;
6306;SDS011;3186;54.062;9.962;2023-11-19T13:00:23;33.07;;;7.70;;
6306;SDS011;3186;54.062;9.962;2023-11-19T13:02:54;43.23;;;8.20;;
6306;SDS011;3186;54.062;9.962;2023-11-19T13:07:47;41.00;;;8.50;;
6306;SDS011;3186;54.062;9.962;2023-11-19T13:10:13;31.43;;;7.83;;
6306;SDS011;3186;54.062;9.962;2023-11-19T13:12:40;34.67;;;8.73;;
6306;SDS011;3186;54.062;9.962;2023-11-19T13:15:06;40.93;;;7.77;;
6306;SDS011;3186;54.062;9.962;2023-11-19T13:17:31;42.70;;;9.03;;
6306;SDS011;3186;54.062;9.962;2023-11-19T13:19:57;34.43;;;8.33;;
6306;SDS011;3186;54.062;9.962;2023-11-19T13:22:23;41.67;;;9.03;;
6306;SDS011;3186;54.062;9.962;2023-11-19T13:24:48;45.73;;;10.07;;
6306;SDS011;3186;54.062;9.962;2023-11-19T13:27:14;43.93;;;9.90;;
6306;SDS011;3186;54.062;9.962;2023-11-19T13:29:40;41.60;;;8.97;;
6306;SDS011;3186;54.062;9.962;2023-11-19T13:32:05;39.27;;;8.90;;
6306;SDS011;3186;54.062;9.962;2023-11-19T13:34:31;40.13;;;9.87;;
6306;SDS011;3186;54.062;9.962;2023-11-19T13:36:57;48.50;;;9.87;;
6306;SDS011;3186;54.062;9.962;2023-11-19T13:39:22;37.40;;;9.23;;
6306;SDS011;3186;54.062;9.962;2023-11-19T13:41:49;47.23;;;10.03;;
6306;SDS011;3186;54.062;9.962;2023-11-19T13:44:15;40.07;;;9.37;;
6306;SDS011;3186;54.062;9.962;2023-11-19T13:46:44;47.63;;;9.77;;
6306;SDS011;3186;54.062;9.962;2023-11-19T13:49:11;56.33;;;9.97;;
6306;SDS011;3186;54.062;9.962;2023-11-19T13:51:36;41.17;;;9.97;;
6306;SDS011;3186;54.062;9.962;2023-11-19T13:54:02;52.77;;;9.77;;
6306;SDS011;3186;54.062;9.962;2023-11-19T13:56:28;43.33;;;9.40;;
6306;SDS011;3186;54.062;9.962;2023-11-19T13:58:53;42.33;;;9.23;;
6306;SDS011;3186;54.062;9.962;2023-11-19T14:01:19;43.17;;;8.27;;
6306;SDS011;3186;54.062;9.962;2023-11-19T14:03:45;33.40;;;8.27;;
6306;SDS011;3186;54.062;9.962;2023-11-19T14:06:10;34.67;;;7.63;;
6306;SDS011;3186;54.062;9.962;2023-11-19T14:08:37;34.53;;;8.33;;
6306;SDS011;3186;54.062;9.962;2023-11-19T14:11:03;40.27;;;8.50;;
6306;SDS011;3186;54.062;9.962;2023-11-19T14:13:30;38.20;;;8.83;;
6306;SDS011;3186;54.062;9.962;2023-11-19T14:15:56;34.40;;;8.60;;
6306;SDS011;3186;54.062;9.962;2023-11-19T14:18:21;37.30;;;8.20;;
6306;SDS011;3186;54.062;9.962;2023-11-19T14:20:48;34.33;;;7.83;;
6306;SDS011;3186;54.062;9.962;2023-11-19T14:23:13;34.27;;;7.83;;
6306;SDS011;3186;54.062;9.962;2023-11-19T14:25:39;38.73;;;7.73;;
6306;SDS011;3186;54.062;9.962;2023-11-19T14:28:05;30.53;;;7.17;;
6306;SDS011;3186;54.062;9.962;2023-11-19T14:30:31;34.90;;;7.40;;
6306;SDS011;3186;54.062;9.962;2023-11-19T14:32:57;33.17;;;7.83;;
6306;SDS011;3186;54.062;9.962;2023-11-19T14:35:22;28.47;;;7.43;;
6306;SDS011;3186;54.062;9.962;2023-11-19T14:37:49;27.17;;;6.57;;
6306;SDS011;3186;54.062;9.962;2023-11-19T14:40:14;33.90;;;7.67;;
6306;SDS011;3186;54.062;9.962;2023-11-19T14:42:40;34.07;;;7.67;;
6306;SDS011;3186;54.062;9.962;2023-11-19T14:45:06;25.30;;;6.67;;
6306;SDS011;3186;54.062;9.962;2023-11-19T14:47:32;30.13;;;7.10;;
6306;SDS011;3186;54.062;9.962;2023-11-19T14:49:58;30.23;;;7.57;;
6306;SDS011;3186;54.062;9.962;2023-11-19T14:52:23;28.70;;;7.27;;
6306;SDS011;3186;54.062;9.962;2023-11-19T14:54:49;24.27;;;7.67;;
6306;SDS011;3186;54.062;9.962;2023-11-19T14:57:16;31.60;;;6.70;;
6306;SDS011;3186;54.062;9.962;2023-11-19T14:59:42;34.77;;;7.17;;
6306;SDS011;3186;54.062;9.962;2023-11-19T15:02:08;28.30;;;7.23;;
6306;SDS011;3186;54.062;9.962;2023-11-19T15:04:33;27.33;;;6.80;;
6306;SDS011;3186;54.062;9.962;2023-11-19T15:07:00;23.53;;;6.70;;
6306;SDS011;3186;54.062;9.962;2023-11-19T15:09:26;25.87;;;8.10;;
6306;SDS011;3186;54.062;9.962;2023-11-19T15:11:54;27.00;;;6.97;;
6306;SDS011;3186;54.062;9.962;2023-11-19T15:14:20;24.33;;;7.73;;
6306;SDS011;3186;54.062;9.962;2023-11-19T15:16:46;24.97;;;6.37;;
6306;SDS011;3186;54.062;9.962;2023-11-19T15:19:12;22.87;;;6.13;;
6306;SDS011;3186;54.062;9.962;2023-11-19T15:21:39;25.77;;;7.43;;
6306;SDS011;3186;54.062;9.962;2023-11-19T15:24:08;31.43;;;8.53;;
6306;SDS011;3186;54.062;9.962;2023-11-19T15:26:35;21.97;;;6.83;;
6306;SDS011;3186;54.062;9.962;2023-11-19T15:29:02;23.13;;;6.77;;
6306;SDS011;3186;54.062;9.962;2023-11-19T15:31:28;21.93;;;6.37;;
6306;SDS011;3186;54.062;9.962;2023-11-19T15:33:54;23.07;;;5.90;;